Time;durP1;ratioP1;P1;durP2;ratioP2;P2;SDS_P1;SDS_P2;PMS_P1;PMS_P2;Temp;Humidity;BMP_temperature;BMP_pressure;BME280_temperature;BME280_humidity;BME280_pressure;Samples;Min_cycle;Max_cycle;Signal;HPM_P1;HPM_P2
2021/05/28 00:05:36;;;;;;;7.60;6.05;;;;;;;8.71;68.98;99577.37;532036;1098;115600;-58
2021/05/28 00:15:41;;;;;;;7.73;6.80;;;;;;;8.74;68.96;99580.66;532038;1098;117360;-58
2021/05/28 00:25:46;;;;;;;6.43;5.78;;;;;;;8.74;69.21;99578.05;530706;1098;116430;-57
2021/05/28 00:35:51;;;;;;;11.03;7.00;;;;;;;8.71;69.55;99578.23;526615;1098;116097;-61
2021/05/28 00:45:56;;;;;;;8.73;7.50;;;;;;;8.74;69.51;99585.90;530997;1098;115728;-58
2021/05/28 00:56:02;;;;;;;8.23;5.97;;;;;;;8.73;69.45;99588.63;531338;1098;116390;-58
2021/05/28 01:06:06;;;;;;;7.27;6.10;;;;;;;8.65;69.57;99597.73;528497;1098;116469;-60
2021/05/28 01:16:11;;;;;;;7.97;6.03;;;;;;;8.62;69.90;99599.68;513743;1094;115678;-57
2021/05/28 01:26:17;;;;;;;5.38;4.88;;;;;;;8.59;70.24;99592.00;532035;1098;116024;-59
2021/05/28 01:36:22;;;;;;;7.37;6.10;;;;;;;8.53;70.71;99590.58;528747;1097;115941;-58
2021/05/28 01:46:29;;;;;;;6.47;5.57;;;;;;;8.54;70.90;99595.73;531282;1098;116132;-58
2021/05/28 01:56:33;;;;;;;6.43;5.73;;;;;;;8.56;70.88;99598.25;532202;1098;116405;-58
2021/05/28 02:06:39;;;;;;;6.57;5.87;;;;;;;8.53;70.95;99604.48;532072;1097;115623;-59
2021/05/28 02:16:44;;;;;;;6.93;6.30;;;;;;;8.45;71.23;99598.83;531332;1098;115750;-58
2021/05/28 02:26:50;;;;;;;5.43;4.93;;;;;;;8.38;71.27;99606.17;528100;1093;116215;-58
2021/05/28 02:36:55;;;;;;;7.60;6.17;;;;;;;8.21;71.17;99611.45;532030;1098;116872;-59
2021/05/28 02:47:00;;;;;;;7.67;5.73;;;;;;;8.11;71.93;99606.72;526781;1098;116214;-59
2021/05/28 02:57:05;;;;;;;6.47;5.33;;;;;;;7.96;71.32;99615.39;530227;1097;116495;-59
2021/05/28 03:07:10;;;;;;;8.67;5.97;;;;;;;7.87;71.98;99626.33;520352;1092;116198;-58
2021/05/28 03:17:15;;;;;;;8.17;5.43;;;;;;;7.89;71.99;99612.26;519603;1098;116568;-59
2021/05/28 03:27:20;;;;;;;6.57;5.23;;;;;;;8.01;72.27;99628.23;521185;1098;116083;-59
2021/05/28 03:37:25;;;;;;;7.27;5.37;;;;;;;8.23;72.03;99635.76;531303;1098;116617;-59
2021/05/28 03:47:30;;;;;;;5.63;5.13;;;;;;;8.32;71.76;99639.67;532051;1098;116909;-59
2021/05/28 03:57:35;;;;;;;11.47;6.40;;;;;;;9.02;71.86;99634.10;519293;1098;115889;-59
2021/05/28 04:07:40;;;;;;;7.67;5.30;;;;;;;18.71;65.08;99618.38;531382;1098;116023;-59
2021/05/28 04:17:45;;;;;;;7.17;4.13;;;;;;;26.72;51.71;99614.89;532062;1098;115627;-59
2021/05/28 04:27:50;;;;;;;6.23;4.40;;;;;;;31.36;42.07;99620.75;527312;1098;116301;-59
2021/05/28 04:37:55;;;;;;;3.17;2.97;;;;;;;34.87;35.06;99621.28;531367;1098;116173;-60
2021/05/28 04:47:59;;;;;;;3.37;2.73;;;;;;;36.01;29.85;99622.03;532048;1098;115986;-58
2021/05/28 04:58:04;;;;;;;3.90;3.45;;;;;;;37.65;27.16;99629.85;532047;1098;116698;-59
2021/05/28 05:08:08;;;;;;;;;;;;;;;39.41;23.19;99627.13;532128;1098;116635;-58
2021/05/28 05:18:13;;;;;;;5.58;2.90;;;;;;;40.82;22.00;99625.02;532344;1098;103872;-61
2021/05/28 05:28:18;;;;;;;5.90;3.40;;;;;;;41.58;19.64;99634.16;521150;1093;116895;-59
2021/05/28 05:38:23;;;;;;;6.80;3.40;;;;;;;42.84;18.74;99622.85;514836;1098;116309;-61
2021/05/28 05:48:28;;;;;;;2.97;2.77;;;;;;;44.74;17.18;99626.00;523684;1098;116687;-60
2021/05/28 05:58:34;;;;;;;4.38;2.90;;;;;;;46.55;15.75;99632.44;526102;1098;116882;-59
2021/05/28 06:08:39;;;;;;;4.73;2.80;;;;;;;46.74;14.83;99631.13;522722;1098;116515;-60
2021/05/28 06:18:44;;;;;;;2.85;2.50;;;;;;;46.61;13.74;99624.71;531864;1098;116018;-60
2021/05/28 06:28:49;;;;;;;3.67;2.50;;;;;;;45.47;14.51;99618.80;531275;1097;116696;-61
2021/05/28 06:38:54;;;;;;;3.90;2.73;;;;;;;47.96;13.37;99618.83;531853;1098;118106;-61
2021/05/28 06:48:59;;;;;;;5.73;2.50;;;;;;;49.55;12.02;99618.72;532056;1098;116255;-61
2021/05/28 06:59:07;;;;;;;2.00;1.90;;;;;;;50.35;11.54;99621.23;531185;1098;116270;-61
2021/05/28 07:09:12;;;;;;;6.20;2.60;;;;;;;49.12;10.97;99608.09;518266;1092;64741;-61
2021/05/28 07:19:17;;;;;;;1.90;1.80;;;;;;;46.95;10.81;99630.28;517978;1093;64283;-62
2021/05/28 07:29:22;;;;;;;2.25;1.45;;;;;;;33.99;16.13;99625.78;517250;1093;116649;-60
2021/05/28 07:39:27;;;;;;;3.73;2.43;;;;;;;27.13;21.46;99645.47;507781;1098;10113591;-61
2021/05/28 07:49:32;;;;;;;1.23;1.05;;;;;;;24.97;24.13;99649.63;515269;1098;116320;-61
2021/05/28 07:59:37;;;;;;;4.20;1.90;;;;;;;21.42;28.67;99670.79;515457;1093;115990;-62
2021/05/28 08:09:42;;;;;;;2.80;1.80;;;;;;;20.35;31.57;99687.38;515427;1093;116932;-60
2021/05/28 08:19:48;;;;;;;3.43;2.23;;;;;;;18.49;35.34;99689.60;514771;1098;115916;-66
2021/05/28 08:29:52;;;;;;;5.67;2.77;;;;;;;18.58;36.60;99692.37;522796;1098;116766;-66
2021/05/28 08:39:57;;;;;;;2.25;2.10;;;;;;;19.36;36.80;99692.86;515487;1098;116062;-58
2021/05/28 08:50:03;;;;;;;2.83;2.43;;;;;;;21.44;34.32;99699.98;516668;1093;116206;-61
2021/05/28 09:00:11;;;;;;;11.15;3.40;;;;;;;20.56;34.22;99690.47;515162;1092;116275;-61
2021/05/28 09:10:35;;;;;;;;;;;;;;;19.16;36.97;99679.70;515132;1098;117169;-57
2021/05/28 09:20:42;;;;;;;5.20;2.40;;;;;;;19.97;35.61;99669.02;517858;1098;103083;-64
2021/05/28 09:30:54;;;;;;;3.50;2.13;;;;;;;19.14;37.16;99663.05;516306;1098;116482;-63
2021/05/28 09:40:59;;;;;;;3.55;2.25;;;;;;;18.32;38.21;99669.13;516310;1098;116160;-62
2021/05/28 09:51:07;;;;;;;2.60;2.40;;;;;;;18.31;39.16;99662.14;515530;1098;116878;-60
2021/05/28 10:01:12;;;;;;;3.88;2.30;;;;;;;18.78;38.64;99665.67;516385;1093;115888;-59
2021/05/28 10:11:18;;;;;;;5.80;2.50;;;;;;;18.60;39.35;99669.12;516137;1098;116711;-69
2021/05/28 10:21:24;;;;;;;4.30;2.80;;;;;;;19.40;38.84;99667.59;515418;1098;116359;-59
2021/05/28 10:31:55;;;;;;;1.80;1.70;;;;;;;20.31;37.36;99654.86;515605;1093;115848;-62
2021/05/28 10:42:12;;;;;;;7.77;2.93;;;;;;;20.85;35.88;99646.53;515133;1093;115746;-63
2021/05/28 10:52:29;;;;;;;5.27;2.20;;;;;;;19.52;37.59;99650.38;516041;1093;116331;-60
2021/05/28 11:02:55;;;;;;;3.43;2.33;;;;;;;19.35;37.78;99645.94;514716;1093;116615;-58
2021/05/28 11:13:15;;;;;;;6.13;2.23;;;;;;;19.82;37.87;99639.42;516318;1098;115866;-58
2021/05/28 11:23:24;;;;;;;3.33;2.13;;;;;;;19.22;38.55;99640.99;516108;1098;115861;-60
2021/05/28 11:33:44;;;;;;;2.43;1.80;;;;;;;19.23;39.20;99635.53;515562;1098;116313;-65
2021/05/28 11:43:49;;;;;;;4.50;2.47;;;;;;;19.60;38.80;99634.47;515800;1093;116190;-58
2021/05/28 11:53:55;;;;;;;3.30;2.77;;;;;;;19.09;39.77;99628.06;515121;1098;116427;-62
2021/05/28 12:04:01;;;;;;;3.10;2.90;;;;;;;19.14;39.91;99629.28;516330;1098;116185;-63
2021/05/28 12:14:06;;;;;;;3.43;2.70;;;;;;;19.84;38.15;99629.43;515683;1098;116119;-58
2021/05/28 12:24:16;;;;;;;2.23;1.27;;;;;;;20.20;37.24;99620.48;515509;1093;115751;-68
2021/05/28 12:34:22;;;;;;;4.47;2.27;;;;;;;19.98;37.28;99620.91;515675;1093;116956;-63
2021/05/28 12:44:30;;;;;;;3.97;1.80;;;;;;;19.79;38.25;99613.92;515915;1098;115588;-64
2021/05/28 12:54:35;;;;;;;;;;;;;;;20.15;36.97;99615.63;516090;1098;115604;-62
2021/05/28 13:04:48;;;;;;;2.75;1.70;;;;;;;19.00;37.28;99612.05;516086;1098;102124;-64
2021/05/28 13:14:55;;;;;;;4.47;1.63;;;;;;;19.21;37.84;99610.86;515686;1098;116177;-63
2021/05/28 13:25:14;;;;;;;4.97;1.90;;;;;;;19.21;38.55;99618.85;515622;1092;116182;-69
2021/05/28 13:35:19;;;;;;;3.35;2.35;;;;;;;18.66;39.45;99631.30;515865;1098;116264;-72
2021/05/28 13:45:24;;;;;;;7.90;2.57;;;;;;;18.56;40.05;99631.34;517045;1098;117201;-72
2021/05/28 13:55:31;;;;;;;3.53;1.90;;;;;;;18.94;39.52;99631.23;515736;1093;115923;-68
2021/05/28 14:05:37;;;;;;;1.73;1.57;;;;;;;19.14;39.83;99628.45;515349;1098;168798;-61
2021/05/28 14:15:45;;;;;;;3.68;1.95;;;;;;;18.04;40.24;99634.55;516054;1098;116665;-59
2021/05/28 14:25:51;;;;;;;2.03;1.50;;;;;;;18.15;40.47;99637.02;516317;1093;116324;-60
2021/05/28 14:35:56;;;;;;;6.35;1.75;;;;;;;18.52;38.91;99640.62;515193;1092;116751;-63
2021/05/28 14:46:02;;;;;;;1.53;1.30;;;;;;;18.61;39.41;99637.07;516197;1097;115782;-61
2021/05/28 14:56:09;;;;;;;1.90;1.35;;;;;;;18.96;39.27;99636.42;515819;1093;116765;-59
2021/05/28 15:06:14;;;;;;;4.37;2.07;;;;;;;18.73;39.63;99620.91;515323;1093;116704;-66
2021/05/28 15:16:20;;;;;;;3.63;1.73;;;;;;;18.08;40.19;99624.47;515676;1094;117045;-58
2021/05/28 15:26:26;;;;;;;1.60;1.50;;;;;;;17.61;41.30;99619.02;515862;1092;115567;-60
2021/05/28 15:36:31;;;;;;;6.65;1.20;;;;;;;17.21;41.76;99631.50;515838;1098;117154;-63
2021/05/28 15:46:36;;;;;;;5.93;1.77;;;;;;;17.00;43.13;99630.80;515223;1098;116569;-63
2021/05/28 15:56:42;;;;;;;2.97;2.77;;;;;;;16.34;45.24;99631.20;515018;1098;116878;-62
2021/05/28 16:06:47;;;;;;;2.60;2.40;;;;;;;15.86;47.13;99645.06;516360;1094;116365;-64
2021/05/28 16:16:52;;;;;;;4.00;2.53;;;;;;;15.80;47.46;99633.19;515749;1098;116458;-62
2021/05/28 16:26:57;;;;;;;3.68;2.13;;;;;;;15.86;47.75;99639.77;515206;1092;116118;-62
2021/05/28 16:37:03;;;;;;;1.60;1.50;;;;;;;15.99;47.48;99629.83;515984;1092;116189;-59
2021/05/28 16:47:08;;;;;;;3.70;1.20;;;;;;;16.21;46.76;99631.44;515718;1098;116388;-60
2021/05/28 16:57:14;;;;;;;3.57;1.60;;;;;;;16.25;45.65;99632.02;515437;1093;115813;-59
2021/05/28 17:07:19;;;;;;;2.07;1.87;;;;;;;15.88;46.31;99633.38;515666;1098;116436;-61
2021/05/28 17:17:25;;;;;;;2.90;1.30;;;;;;;15.33;47.82;99638.88;515916;1098;115598;-61
2021/05/28 17:27:30;;;;;;;1.80;1.70;;;;;;;14.35;49.57;99642.27;516006;1092;116925;-61
2021/05/28 17:37:37;;;;;;;2.67;2.00;;;;;;;13.96;50.44;99639.98;515828;1093;116367;-63
2021/05/28 17:47:43;;;;;;;2.10;2.00;;;;;;;13.84;52.66;99636.48;515356;1093;116381;-61
2021/05/28 17:57:48;;;;;;;2.90;2.60;;;;;;;13.70;53.43;99636.71;516003;1098;115544;-60
2021/05/28 18:07:53;;;;;;;3.50;2.40;;;;;;;13.38;54.11;99640.81;515699;1098;116393;-60
2021/05/28 18:17:59;;;;;;;2.43;2.20;;;;;;;13.10;54.93;99647.30;514997;1093;115774;-61
2021/05/28 18:28:05;;;;;;;2.63;2.03;;;;;;;12.78;56.06;99651.34;515912;1093;115225;-62
2021/05/28 18:38:10;;;;;;;3.77;3.17;;;;;;;12.45;57.63;99663.34;516062;1098;115986;-61
2021/05/28 18:48:16;;;;;;;3.20;2.70;;;;;;;12.02;59.62;99673.28;515444;1098;116335;-60
2021/05/28 18:58:23;;;;;;;3.63;2.03;;;;;;;11.62;60.19;99673.35;516053;1098;115224;-63
2021/05/28 19:08:30;;;;;;;2.75;2.10;;;;;;;11.26;61.07;99691.45;515865;1093;115812;-60
2021/05/28 19:18:37;;;;;;;2.70;2.20;;;;;;;10.94;62.44;99699.63;515728;1093;115984;-60
2021/05/28 19:28:42;;;;;;;2.55;2.10;;;;;;;10.71;63.14;99703.73;498522;1093;10001494;-59
2021/05/28 19:38:47;;;;;;;2.95;2.40;;;;;;;10.52;63.89;99710.12;514865;1093;116524;-60
2021/05/28 19:48:54;;;;;;;6.30;2.47;;;;;;;10.30;64.79;99713.20;515300;1098;116261;-62
2021/05/28 19:59:00;;;;;;;2.70;2.50;;;;;;;10.16;65.37;99714.03;515363;1093;115834;-60
2021/05/28 20:09:07;;;;;;;4.60;4.10;;;;;;;10.01;65.98;99715.79;515120;1098;116107;-60
2021/05/28 20:19:12;;;;;;;12.67;3.77;;;;;;;9.85;66.47;99734.22;515365;1093;116720;-60
2021/05/28 20:29:17;;;;;;;3.20;2.83;;;;;;;9.75;67.12;99739.99;515530;1094;116086;-60
2021/05/28 20:39:22;;;;;;;4.67;3.80;;;;;;;9.84;67.85;99743.02;514741;1098;116057;-59
2021/05/28 20:49:28;;;;;;;4.20;3.80;;;;;;;9.94;68.35;99745.03;515612;1098;117132;-60
2021/05/28 20:59:33;;;;;;;5.40;4.80;;;;;;;10.06;68.78;99746.06;515074;1098;116906;-59
2021/05/28 21:09:38;;;;;;;4.37;3.80;;;;;;;10.13;68.89;99750.95;515441;1098;115870;-59
2021/05/28 21:19:43;;;;;;;6.90;3.93;;;;;;;10.17;69.09;99749.83;515483;1092;116140;-59
2021/05/28 21:29:49;;;;;;;5.90;5.30;;;;;;;10.16;68.87;99756.88;514541;1093;115758;-59
2021/05/28 21:39:54;;;;;;;6.27;5.27;;;;;;;10.12;69.11;99755.34;515260;1093;116334;-58
2021/05/28 21:49:59;;;;;;;4.67;3.87;;;;;;;10.07;69.14;99752.17;515346;1093;116067;-58
2021/05/28 22:00:14;;;;;;;3.60;3.30;;;;;;;9.99;69.28;99757.88;514748;1093;117148;-59
2021/05/28 22:10:19;;;;;;;4.07;3.23;;;;;;;9.93;69.39;99755.59;515491;1092;116889;-59
2021/05/28 22:20:25;;;;;;;3.83;3.37;;;;;;;9.87;69.38;99753.32;515352;1098;116227;-59
2021/05/28 22:40:56;;;;;;;3.35;3.05;;;;;;;9.63;70.14;99743.33;515806;1098;116178;-59
2021/05/28 22:51:05;;;;;;;5.33;3.80;;;;;;;9.51;70.34;99742.27;514949;1098;116504;-59
2021/05/28 23:01:13;;;;;;;7.90;4.20;;;;;;;9.38;71.04;99745.59;515650;1093;116931;-59
2021/05/28 23:11:36;;;;;;;4.73;4.07;;;;;;;9.29;71.15;99748.73;515461;1098;116401;-59
2021/05/28 23:21:42;;;;;;;5.30;4.80;;;;;;;9.27;71.52;99744.50;515485;1098;116523;-59
2021/05/28 23:32:08;;;;;;;5.37;4.33;;;;;;;9.26;71.89;99754.16;515531;1098;116038;-59
2021/05/28 23:42:17;;;;;;;5.20;4.03;;;;;;;9.26;71.94;99754.16;514654;1093;117260;-60
2021/05/28 23:52:23;;;;;;;6.00;5.40;;;;;;;9.23;71.79;99749.92;515673;1098;116588;-60
